DAUL/LOO METAR and TAF weather

Enter ICAO airport designator
Station Type Date Time Source
DAUL METAR 2019/05/25 09:00 UTC NOAA

DAUL 250900Z 36006KT 9999 BKN033 20/09 Q1012


Station Type Date Time Source
DAUL Decoded METAR 2019/05/25 09:00 UTC NOAA

Laghouat, Algeria (DAUL) 33-46N 002-56E 765M
May 25, 2019 - 05:00 AM EDT / 2019.05.25 0900 UTC
Wind: from the N (360 degrees) at 7 MPH (6 KT):0
Visibility: greater than 7 mile(s):0
Sky conditions: mostly cloudy
Temperature: 68 F (20 C)
Dew Point: 48 F (9 C)
Relative Humidity: 49%
Pressure (altimeter): 29.88 in. Hg (1012 hPa)
ob: DAUL 250900Z 36006KT 9999 BKN033 20/09 Q1012
cycle: 9

Station Type Date Time Source
DAUL TAF 2017/11/09 18:03 UTC NOAA

TAF DAUL 091700Z 0918/1009 02012KT 9999 SCT030 SCT100 PROB40
TEMPO 0918/0924 35020G30KT 4000 -TSRA FEW030CB

Example: see airport list